Time;durP1;ratioP1;P1;durP2;ratioP2;P2;SDS_P1;SDS_P2;PMS_P1;PMS_P2;Temp;Humidity;BMP_temperature;BMP_pressure;BME280_temperature;BME280_humidity;BME280_pressure;Samples;Min_cycle;Max_cycle;Signal;HPM_P1;HPM_P2
2022/07/23 00:06:25;;;;;;;3.72;2.40;;;21.80;58.00;;;;;;20576287;28;20445;-72
2022/07/23 00:16:26;;;;;;;4.82;2.47;;;21.80;58.00;;;;;;20576615;28;20145;-73
2022/07/23 00:26:27;;;;;;;3.22;2.08;;;21.70;58.00;;;;;;20590514;28;20519;-72
2022/07/23 00:36:28;;;;;;;2.93;2.33;;;21.70;58.10;;;;;;20574497;28;20038;-72
2022/07/23 00:46:28;;;;;;;3.42;2.42;;;21.60;58.00;;;;;;20547915;28;20376;-72
2022/07/23 00:56:29;;;;;;;3.65;2.70;;;21.60;58.00;;;;;;20943687;23;20130;-74
2022/07/23 01:06:37;;;;;;;3.83;2.35;;;21.60;58.00;;;;;;20559238;28;20103;-72
2022/07/23 01:16:37;;;;;;;4.22;2.10;;;21.50;57.90;;;;;;20570225;28;20062;-72
2022/07/23 01:26:42;;;;;;;2.95;2.30;;;21.50;57.90;;;;;;20566286;28;20046;-72
2022/07/23 01:36:43;;;;;;;4.03;2.25;;;21.40;57.80;;;;;;20552711;28;20118;-73
2022/07/23 01:46:45;;;;;;;5.60;2.90;;;21.40;57.80;;;;;;20571016;28;20133;-72
2022/07/23 01:56:46;;;;;;;3.33;2.30;;;21.30;57.80;;;;;;20597057;28;21279;-74
2022/07/23 02:06:47;;;;;;;3.60;2.30;;;21.30;57.80;;;;;;20526336;28;20039;-71
2022/07/23 02:16:48;;;;;;;5.50;2.95;;;21.20;57.60;;;;;;20543464;28;20109;-73
2022/07/23 02:26:49;;;;;;;4.00;2.47;;;21.20;57.50;;;;;;20533024;28;20035;-72
2022/07/23 02:36:49;;;;;;;3.50;2.63;;;21.10;57.40;;;;;;20564536;28;20547;-72
2022/07/23 02:46:50;;;;;;;3.90;2.17;;;21.00;57.30;;;;;;20612677;28;20675;-73
2022/07/23 02:56:52;;;;;;;5.68;2.85;;;21.00;57.30;;;;;;20606703;28;20041;-73
2022/07/23 03:06:53;;;;;;;3.08;2.30;;;20.90;57.30;;;;;;20583528;28;20046;-71
2022/07/23 03:16:54;;;;;;;4.20;2.78;;;20.90;57.30;;;;;;20611380;28;20133;-72
2022/07/23 03:26:55;;;;;;;3.25;2.35;;;20.90;57.30;;;;;;20594402;28;20493;-72
2022/07/23 03:36:55;;;;;;;3.60;2.43;;;20.80;57.10;;;;;;20591519;28;20034;-72
2022/07/23 03:46:56;;;;;;;3.63;2.23;;;20.80;57.10;;;;;;20608415;28;20051;-71
2022/07/23 03:56:56;;;;;;;3.40;2.58;;;20.70;56.90;;;;;;20608884;28;20373;-71
2022/07/23 04:06:57;;;;;;;4.20;2.63;;;20.70;56.90;;;;;;20574662;28;20030;-72
2022/07/23 04:16:58;;;;;;;4.18;2.22;;;20.60;57.00;;;;;;20600676;28;20122;-73
2022/07/23 04:27:00;;;;;;;4.78;2.75;;;20.60;57.20;;;;;;20591636;28;20054;-72
2022/07/23 04:37:01;;;;;;;4.90;2.67;;;20.60;57.40;;;;;;20574630;28;20546;-74
2022/07/23 04:47:04;;;;;;;6.68;3.33;;;20.60;57.70;;;;;;20575171;28;20031;-72
2022/07/23 04:57:05;;;;;;;3.65;2.75;;;20.50;58.30;;;;;;20582020;28;20557;-72
2022/07/23 05:07:06;;;;;;;6.32;2.83;;;20.50;58.60;;;;;;20592520;28;20050;-71
2022/07/23 05:17:08;;;;;;;6.40;3.50;;;20.50;59.00;;;;;;20602126;28;20034;-72
2022/07/23 05:27:09;;;;;;;3.70;2.92;;;20.50;59.40;;;;;;20608732;28;20393;-70
2022/07/23 05:37:10;;;;;;;4.85;2.67;;;20.40;59.70;;;;;;20600239;28;20739;-73
2022/07/23 05:47:11;;;;;;;4.32;2.70;;;20.40;60.10;;;;;;20599772;28;20534;-72
2022/07/23 05:57:12;;;;;;;4.82;2.78;;;20.40;60.40;;;;;;20560906;28;20109;-72
2022/07/23 06:07:12;;;;;;;4.00;2.13;;;20.40;60.80;;;;;;20582627;28;20095;-73
2022/07/23 06:17:13;;;;;;;5.75;2.45;;;20.40;61.20;;;;;;20599423;28;20114;-73
2022/07/23 06:27:14;;;;;;;4.33;2.07;;;20.40;61.60;;;;;;20599164;28;20039;-76
2022/07/23 06:37:15;;;;;;;5.63;2.00;;;20.40;61.80;;;;;;20585526;28;20286;-76
2022/07/23 06:47:15;;;;;;;2.50;1.80;;;20.40;61.90;;;;;;20615181;28;21119;-78
2022/07/23 06:57:16;;;;;;;5.83;1.77;;;20.50;62.00;;;;;;20571042;28;20053;-77
2022/07/23 07:07:17;;;;;;;2.15;1.20;;;20.60;61.50;;;;;;20592823;28;20401;-72
2022/07/23 07:17:18;;;;;;;3.20;2.08;;;20.60;61.30;;;;;;20611575;28;20504;-77
2022/07/23 07:27:18;;;;;;;2.28;1.20;;;20.70;61.20;;;;;;20575243;28;20045;-75
2022/07/23 07:37:19;;;;;;;2.53;1.15;;;20.80;61.10;;;;;;20557781;28;20082;-79
2022/07/23 07:47:20;;;;;;;3.22;0.93;;;20.90;61.00;;;;;;20569407;28;20129;-77
2022/07/23 07:57:20;;;;;;;6.18;1.90;;;20.90;60.80;;;;;;20596223;28;20042;-82
2022/07/23 08:07:21;;;;;;;2.28;1.20;;;20.90;60.70;;;;;;20574023;28;20042;-78
2022/07/23 08:17:21;;;;;;;3.42;1.13;;;21.00;60.70;;;;;;20617287;28;20113;-78
2022/07/23 08:27:22;;;;;;;5.10;1.30;;;21.10;61.00;;;;;;20591426;28;20050;-77
2022/07/23 08:37:22;;;;;;;3.38;0.93;;;21.10;61.30;;;;;;20622409;28;20727;-80
2022/07/23 08:47:23;;;;;;;4.65;1.20;;;21.20;61.50;;;;;;20587441;28;20398;-79
2022/07/23 08:57:24;;;;;;;3.88;1.17;;;21.20;61.30;;;;;;20589101;28;20035;-78
2022/07/23 09:07:24;;;;;;;3.40;1.08;;;21.20;61.10;;;;;;20569802;28;20038;-79
2022/07/23 09:17:25;;;;;;;2.30;0.90;;;21.20;60.80;;;;;;20604731;28;20026;-78
2022/07/23 09:27:25;;;;;;;2.97;0.52;;;21.30;60.60;;;;;;20577170;28;20125;-78
2022/07/23 09:37:26;;;;;;;1.45;0.88;;;21.30;60.30;;;;;;20619649;28;20038;-82
2022/07/23 09:47:28;;;;;;;2.45;0.90;;;21.30;60.00;;;;;;20650869;28;20057;-78
2022/07/23 09:57:29;;;;;;;2.22;0.77;;;21.40;59.80;;;;;;20616363;28;20045;-78
2022/07/23 10:07:33;;;;;;;2.10;0.70;;;21.40;59.60;;;;;;20563868;28;20056;-78
2022/07/23 10:17:52;;;;;;;1.45;0.85;;;21.40;59.30;;;;;;20597222;28;20067;-78
2022/07/23 10:28:06;;;;;;;2.05;0.88;;;21.40;59.00;;;;;;20567700;28;20070;-78
2022/07/23 10:38:19;;;;;;;0.70;0.63;;;21.50;58.70;;;;;;20566538;28;20062;-78
2022/07/23 10:48:21;;;;;;;3.35;0.75;;;21.50;58.50;;;;;;20582973;28;20038;-79
2022/07/23 10:58:32;;;;;;;2.33;0.85;;;21.50;58.30;;;;;;20577720;28;20034;-77
2022/07/23 11:08:33;;;;;;;1.70;0.75;;;21.50;58.00;;;;;;20583112;28;20042;-79
2022/07/23 11:18:39;;;;;;;3.15;1.08;;;21.50;57.80;;;;;;20614841;28;20084;-78
2022/07/23 11:28:40;;;;;;;1.90;1.00;;;21.50;57.60;;;;;;20593736;28;20500;-77
2022/07/23 11:38:40;;;;;;;1.67;0.77;;;21.50;57.40;;;;;;20578274;28;20111;-77
2022/07/23 11:48:41;;;;;;;1.98;1.00;;;21.60;57.30;;;;;;20545636;28;20042;-78
2022/07/23 11:58:53;;;;;;;0.95;0.68;;;21.50;57.00;;;;;;20560164;28;20037;-79
2022/07/23 12:08:53;;;;;;;1.25;0.70;;;21.60;56.90;;;;;;20577255;28;20043;-77
2022/07/23 12:18:55;;;;;;;0.88;0.63;;;21.60;56.70;;;;;;20556618;28;20393;-78
2022/07/23 12:28:56;;;;;;;1.20;0.60;;;21.60;56.50;;;;;;20575918;28;20062;-78
2022/07/23 12:38:56;;;;;;;0.80;0.57;;;21.70;56.30;;;;;;20586986;28;20035;-78
2022/07/23 12:48:57;;;;;;;2.35;0.55;;;21.70;56.00;;;;;;20572890;28;20181;-78
2022/07/23 12:59:03;;;;;;;1.77;0.80;;;21.70;55.70;;;;;;20571287;28;20039;-79
2022/07/23 13:09:06;;;;;;;0.75;0.40;;;21.80;55.50;;;;;;20571783;28;20065;-79
2022/07/23 13:19:07;;;;;;;1.23;0.60;;;21.80;55.30;;;;;;20593515;28;20081;-79
2022/07/23 13:29:07;;;;;;;2.92;0.57;;;21.80;55.00;;;;;;20573197;28;20046;-78
2022/07/23 13:39:08;;;;;;;0.68;0.40;;;22.00;54.90;;;;;;20587383;28;20405;-75
2022/07/23 13:49:09;;;;;;;3.40;0.57;;;21.90;55.30;;;;;;20575395;28;20043;-79
2022/07/23 13:59:10;;;;;;;0.93;0.43;;;22.00;54.40;;;;;;20533222;28;20338;-86
2022/07/23 14:09:11;;;;;;;1.20;0.63;;;22.00;54.40;;;;;;20584114;28;20039;-81
2022/07/23 14:19:12;;;;;;;1.17;0.60;;;22.10;54.10;;;;;;20601075;28;20045;-81
2022/07/23 14:29:12;;;;;;;0.65;0.30;;;22.30;53.50;;;;;;20631362;28;20104;-80
2022/07/23 14:39:13;;;;;;;1.02;0.40;;;22.30;53.30;;;;;;20630930;28;20034;-79
2022/07/23 14:49:14;;;;;;;1.40;0.60;;;22.40;53.30;;;;;;20612482;28;20187;-78
2022/07/23 14:59:14;;;;;;;0.93;0.50;;;22.50;53.20;;;;;;20622583;28;20390;-82
2022/07/23 15:09:15;;;;;;;0.90;0.47;;;22.50;53.00;;;;;;20628157;28;20088;-78
2022/07/23 15:19:15;;;;;;;1.23;0.60;;;22.50;52.90;;;;;;20590634;28;20047;-81
2022/07/23 15:29:16;;;;;;;0.82;0.60;;;22.50;52.70;;;;;;20615638;28;20302;-78
2022/07/23 15:39:16;;;;;;;0.73;0.45;;;22.60;52.50;;;;;;20577350;28;20102;-79
2022/07/23 15:49:17;;;;;;;3.60;0.70;;;22.70;52.60;;;;;;20591380;28;20034;-75
2022/07/23 15:59:18;;;;;;;1.52;0.50;;;22.80;52.40;;;;;;20574564;28;20328;-78
2022/07/23 16:09:18;;;;;;;3.03;0.47;;;22.80;52.10;;;;;;20538884;28;20043;-78
2022/07/23 16:19:19;;;;;;;1.30;0.60;;;22.90;51.90;;;;;;20572394;28;20396;-80
2022/07/23 16:29:19;;;;;;;0.90;0.40;;;22.90;51.80;;;;;;20591416;28;20684;-82
2022/07/23 16:39:20;;;;;;;2.20;0.50;;;23.00;51.70;;;;;;20564603;28;20110;-79
2022/07/23 16:49:21;;;;;;;0.88;0.30;;;23.10;51.50;;;;;;20550075;28;20035;-78
2022/07/23 16:59:21;;;;;;;2.30;0.35;;;23.10;51.30;;;;;;20551967;28;20101;-79
2022/07/23 17:09:22;;;;;;;0.90;0.45;;;23.10;51.10;;;;;;20530819;28;20130;-78
2022/07/23 17:19:29;;;;;;;0.40;0.20;;;23.20;51.10;;;;;;21009502;28;20398;-79
2022/07/23 17:29:30;;;;;;;0.50;0.30;;;23.20;51.00;;;;;;20961668;28;20510;-78
2022/07/23 17:39:30;;;;;;;0.95;0.38;;;23.10;50.80;;;;;;21015832;28;20282;-80
2022/07/23 17:49:31;;;;;;;0.80;0.33;;;23.20;50.90;;;;;;20963082;28;20056;-80
2022/07/23 17:59:32;;;;;;;1.95;0.30;;;23.20;50.90;;;;;;20988686;28;20470;-80
2022/07/23 18:09:32;;;;;;;1.42;0.50;;;23.10;50.80;;;;;;20967814;28;20028;-80
2022/07/23 18:19:33;;;;;;;0.75;0.40;;;23.10;50.90;;;;;;20928937;28;20033;-75
2022/07/23 18:29:34;;;;;;;0.73;0.30;;;23.00;51.10;;;;;;20907429;28;20643;-78
2022/07/23 18:39:34;;;;;;;0.35;0.30;;;22.90;51.40;;;;;;20919668;28;20298;-76
2022/07/23 18:49:35;;;;;;;0.90;0.22;;;22.90;51.70;;;;;;20909574;28;20079;-77
2022/07/23 18:59:36;;;;;;;0.60;0.40;;;22.80;51.80;;;;;;20885721;28;20472;-77
2022/07/23 19:09:37;;;;;;;0.20;0.20;;;22.80;52.70;;;;;;20926074;28;20032;-77
2022/07/23 19:19:37;;;;;;;2.28;0.50;;;22.80;52.30;;;;;;20933679;28;20036;-75
2022/07/23 19:29:38;;;;;;;0.80;0.40;;;22.70;52.50;;;;;;20954233;28;20036;-74
2022/07/23 19:39:39;;;;;;;1.13;0.32;;;22.70;52.80;;;;;;20883005;28;20033;-73
2022/07/23 19:49:40;;;;;;;0.65;0.30;;;22.60;53.00;;;;;;20911666;28;20029;-74
2022/07/23 19:59:40;;;;;;;2.90;0.40;;;22.50;53.10;;;;;;20911434;28;20025;-74
2022/07/23 20:09:41;;;;;;;0.82;0.50;;;22.40;53.10;;;;;;20905445;28;20292;-74
2022/07/23 20:19:41;;;;;;;1.55;1.15;;;22.40;53.20;;;;;;20873162;28;20133;-74
2022/07/23 20:29:42;;;;;;;3.90;0.73;;;22.30;53.40;;;;;;20904311;28;20040;-73
2022/07/23 20:39:43;;;;;;;2.35;0.50;;;22.20;53.50;;;;;;20907773;28;20043;-75
2022/07/23 20:49:44;;;;;;;12.32;1.45;;;22.10;53.50;;;;;;20882468;28;20060;-74
2022/07/23 20:59:45;;;;;;;2.28;1.10;;;22.00;53.40;;;;;;20904977;28;20063;-74
2022/07/23 21:09:46;;;;;;;3.40;1.25;;;21.90;53.40;;;;;;20901824;28;20136;-74
2022/07/23 21:19:47;;;;;;;7.55;0.93;;;21.90;53.50;;;;;;20887185;28;20063;-74
2022/07/23 21:29:47;;;;;;;4.93;1.50;;;21.80;53.60;;;;;;20902233;28;20041;-74
2022/07/23 21:39:48;;;;;;;8.55;1.42;;;21.80;53.60;;;;;;20906536;28;20033;-74
2022/07/23 21:49:48;;;;;;;3.72;0.90;;;21.70;53.50;;;;;;20868063;28;20116;-74
2022/07/23 21:59:49;;;;;;;4.22;1.10;;;21.60;53.30;;;;;;20888566;28;20041;-74
2022/07/23 22:09:50;;;;;;;3.08;0.93;;;21.60;53.20;;;;;;20866431;28;20395;-74
2022/07/23 22:19:50;;;;;;;3.47;0.70;;;21.60;53.10;;;;;;20915551;28;20108;-73
2022/07/23 22:29:51;;;;;;;2.92;0.80;;;21.50;53.00;;;;;;20898008;28;20041;-74
2022/07/23 22:39:51;;;;;;;1.73;0.85;;;21.40;52.90;;;;;;20913357;28;20073;-74
2022/07/23 22:49:52;;;;;;;2.63;0.60;;;21.40;52.80;;;;;;20880276;28;20032;-75
2022/07/23 22:59:52;;;;;;;1.33;0.40;;;21.30;52.70;;;;;;20912903;28;20029;-74
2022/07/23 23:09:53;;;;;;;2.63;1.13;;;21.30;52.70;;;;;;20895614;28;20182;-74
2022/07/23 23:19:53;;;;;;;3.13;0.68;;;21.20;52.70;;;;;;20910610;28;20100;-74
2022/07/23 23:29:54;;;;;;;6.55;0.80;;;21.10;52.70;;;;;;20885793;28;20033;-73
2022/07/23 23:39:55;;;;;;;1.92;0.75;;;21.10;52.60;;;;;;20911577;28;20447;-73
2022/07/23 23:49:55;;;;;;;4.25;0.85;;;21.00;52.60;;;;;;20891530;28;20555;-74
2022/07/23 23:59:56;;;;;;;1.13;0.70;;;21.00;52.60;;;;;;20908259;28;20125;-74
